sensor_id;sensor_type;location;lat;lon;timestamp;P1;durP1;ratioP1;P2;durP2;ratioP2
7899;SDS011;3995;50.856;4.404;2022-07-06T00:00:15;9.23;;;1.70;;
7899;SDS011;3995;50.856;4.404;2022-07-06T00:02:43;5.00;;;2.23;;
7899;SDS011;3995;50.856;4.404;2022-07-06T00:05:10;4.83;;;1.80;;
7899;SDS011;3995;50.856;4.404;2022-07-06T00:07:39;6.93;;;2.00;;
7899;SDS011;3995;50.856;4.404;2022-07-06T00:10:06;7.23;;;2.27;;
7899;SDS011;3995;50.856;4.404;2022-07-06T00:12:34;4.20;;;2.20;;
7899;SDS011;3995;50.856;4.404;2022-07-06T00:15:01;8.67;;;2.20;;
7899;SDS011;3995;50.856;4.404;2022-07-06T00:17:28;4.13;;;2.33;;
7899;SDS011;3995;50.856;4.404;2022-07-06T00:19:56;7.33;;;1.83;;
7899;SDS011;3995;50.856;4.404;2022-07-06T00:22:23;9.10;;;2.37;;
7899;SDS011;3995;50.856;4.404;2022-07-06T00:24:52;6.30;;;2.33;;
7899;SDS011;3995;50.856;4.404;2022-07-06T00:27:19;6.23;;;1.97;;
7899;SDS011;3995;50.856;4.404;2022-07-06T00:29:46;4.07;;;2.03;;
7899;SDS011;3995;50.856;4.404;2022-07-06T00:32:13;6.27;;;2.03;;
7899;SDS011;3995;50.856;4.404;2022-07-06T00:34:40;6.53;;;2.50;;
7899;SDS011;3995;50.856;4.404;2022-07-06T00:37:08;5.03;;;2.63;;
7899;SDS011;3995;50.856;4.404;2022-07-06T00:39:35;6.17;;;2.00;;
7899;SDS011;3995;50.856;4.404;2022-07-06T00:42:04;6.43;;;1.93;;
7899;SDS011;3995;50.856;4.404;2022-07-06T00:44:31;4.13;;;2.33;;
7899;SDS011;3995;50.856;4.404;2022-07-06T00:46:58;4.93;;;2.27;;
7899;SDS011;3995;50.856;4.404;2022-07-06T00:49:25;4.97;;;2.10;;
7899;SDS011;3995;50.856;4.404;2022-07-06T00:52:10;3.43;;;1.70;;
7899;SDS011;3995;50.856;4.404;2022-07-06T00:54:37;4.37;;;2.00;;
7899;SDS011;3995;50.856;4.404;2022-07-06T00:57:09;7.10;;;2.00;;
7899;SDS011;3995;50.856;4.404;2022-07-06T00:59:36;8.20;;;2.43;;
7899;SDS011;3995;50.856;4.404;2022-07-06T01:02:04;5.00;;;2.23;;
7899;SDS011;3995;50.856;4.404;2022-07-06T01:04:31;4.30;;;1.97;;
7899;SDS011;3995;50.856;4.404;2022-07-06T01:06:58;8.03;;;2.20;;
7899;SDS011;3995;50.856;4.404;2022-07-06T01:09:27;7.30;;;2.50;;
7899;SDS011;3995;50.856;4.404;2022-07-06T01:11:54;4.20;;;2.20;;
7899;SDS011;3995;50.856;4.404;2022-07-06T01:14:22;4.17;;;2.13;;
7899;SDS011;3995;50.856;4.404;2022-07-06T01:16:50;4.07;;;1.60;;
7899;SDS011;3995;50.856;4.404;2022-07-06T01:19:17;4.90;;;2.57;;
7899;SDS011;3995;50.856;4.404;2022-07-06T01:21:46;4.10;;;1.83;;
7899;SDS011;3995;50.856;4.404;2022-07-06T01:24:13;4.00;;;2.00;;
7899;SDS011;3995;50.856;4.404;2022-07-06T01:26:40;3.23;;;2.00;;
7899;SDS011;3995;50.856;4.404;2022-07-06T01:29:07;5.70;;;2.33;;
7899;SDS011;3995;50.856;4.404;2022-07-06T01:31:35;3.97;;;2.07;;
7899;SDS011;3995;50.856;4.404;2022-07-06T01:34:11;5.53;;;1.93;;
7899;SDS011;3995;50.856;4.404;2022-07-06T01:36:39;4.13;;;1.97;;
7899;SDS011;3995;50.856;4.404;2022-07-06T01:39:08;3.30;;;2.17;;
7899;SDS011;3995;50.856;4.404;2022-07-06T01:41:37;6.93;;;2.10;;
7899;SDS011;3995;50.856;4.404;2022-07-06T01:44:04;5.07;;;1.97;;
7899;SDS011;3995;50.856;4.404;2022-07-06T01:46:32;7.90;;;2.73;;
7899;SDS011;3995;50.856;4.404;2022-07-06T01:48:59;6.90;;;2.10;;
7899;SDS011;3995;50.856;4.404;2022-07-06T01:51:27;7.20;;;2.60;;
7899;SDS011;3995;50.856;4.404;2022-07-06T01:53:54;5.70;;;2.20;;
7899;SDS011;3995;50.856;4.404;2022-07-06T01:56:23;5.43;;;2.47;;
7899;SDS011;3995;50.856;4.404;2022-07-06T01:58:50;6.30;;;2.30;;
7899;SDS011;3995;50.856;4.404;2022-07-06T02:01:18;5.63;;;2.30;;
7899;SDS011;3995;50.856;4.404;2022-07-06T02:03:46;5.37;;;2.20;;
7899;SDS011;3995;50.856;4.404;2022-07-06T02:06:13;3.30;;;1.90;;
7899;SDS011;3995;50.856;4.404;2022-07-06T02:08:41;5.47;;;2.23;;
7899;SDS011;3995;50.856;4.404;2022-07-06T02:11:09;7.83;;;2.77;;
7899;SDS011;3995;50.856;4.404;2022-07-06T02:13:38;6.10;;;2.10;;
7899;SDS011;3995;50.856;4.404;2022-07-06T02:16:05;4.77;;;2.47;;
7899;SDS011;3995;50.856;4.404;2022-07-06T02:18:32;4.23;;;2.50;;
7899;SDS011;3995;50.856;4.404;2022-07-06T02:20:59;4.20;;;2.20;;
7899;SDS011;3995;50.856;4.404;2022-07-06T02:23:27;5.70;;;2.30;;
7899;SDS011;3995;50.856;4.404;2022-07-06T02:25:54;5.73;;;2.47;;
7899;SDS011;3995;50.856;4.404;2022-07-06T02:28:21;5.20;;;2.47;;
7899;SDS011;3995;50.856;4.404;2022-07-06T02:30:50;4.53;;;2.40;;
7899;SDS011;3995;50.856;4.404;2022-07-06T02:33:17;3.77;;;2.23;;
7899;SDS011;3995;50.856;4.404;2022-07-06T02:35:44;6.60;;;2.80;;
7899;SDS011;3995;50.856;4.404;2022-07-06T02:38:11;6.00;;;2.93;;
7899;SDS011;3995;50.856;4.404;2022-07-06T02:40:39;3.60;;;2.70;;
7899;SDS011;3995;50.856;4.404;2022-07-06T02:43:06;7.50;;;3.00;;
7899;SDS011;3995;50.856;4.404;2022-07-06T02:45:33;6.60;;;2.37;;
7899;SDS011;3995;50.856;4.404;2022-07-06T02:48:02;23.40;;;3.43;;
7899;SDS011;3995;50.856;4.404;2022-07-06T02:50:29;5.60;;;2.20;;
7899;SDS011;3995;50.856;4.404;2022-07-06T02:52:57;4.50;;;2.37;;
7899;SDS011;3995;50.856;4.404;2022-07-06T02:55:26;4.97;;;2.90;;
7899;SDS011;3995;50.856;4.404;2022-07-06T02:57:53;5.47;;;2.10;;
7899;SDS011;3995;50.856;4.404;2022-07-06T03:00:20;3.97;;;2.70;;
7899;SDS011;3995;50.856;4.404;2022-07-06T03:02:48;3.83;;;2.43;;
7899;SDS011;3995;50.856;4.404;2022-07-06T03:05:16;5.40;;;2.40;;
7899;SDS011;3995;50.856;4.404;2022-07-06T03:07:43;5.07;;;2.73;;
7899;SDS011;3995;50.856;4.404;2022-07-06T03:10:10;4.47;;;2.70;;
7899;SDS011;3995;50.856;4.404;2022-07-06T03:12:39;4.23;;;2.20;;
7899;SDS011;3995;50.856;4.404;2022-07-06T03:15:07;5.70;;;3.30;;
7899;SDS011;3995;50.856;4.404;2022-07-06T03:17:35;6.53;;;2.80;;
7899;SDS011;3995;50.856;4.404;2022-07-06T03:20:02;5.13;;;2.50;;
7899;SDS011;3995;50.856;4.404;2022-07-06T03:22:32;6.17;;;3.00;;
7899;SDS011;3995;50.856;4.404;2022-07-06T03:24:59;7.87;;;2.93;;
7899;SDS011;3995;50.856;4.404;2022-07-06T03:27:27;3.70;;;2.90;;
7899;SDS011;3995;50.856;4.404;2022-07-06T03:29:54;4.20;;;3.00;;
7899;SDS011;3995;50.856;4.404;2022-07-06T03:32:21;4.30;;;2.70;;
7899;SDS011;3995;50.856;4.404;2022-07-06T03:34:49;11.40;;;2.77;;
7899;SDS011;3995;50.856;4.404;2022-07-06T03:37:16;7.90;;;3.00;;
7899;SDS011;3995;50.856;4.404;2022-07-06T03:39:45;12.53;;;3.13;;
7899;SDS011;3995;50.856;4.404;2022-07-06T03:42:12;9.50;;;3.20;;
7899;SDS011;3995;50.856;4.404;2022-07-06T03:44:39;12.20;;;3.33;;
7899;SDS011;3995;50.856;4.404;2022-07-06T03:47:06;10.43;;;3.30;;
7899;SDS011;3995;50.856;4.404;2022-07-06T03:49:34;10.47;;;3.00;;
7899;SDS011;3995;50.856;4.404;2022-07-06T03:52:01;6.13;;;3.33;;
7899;SDS011;3995;50.856;4.404;2022-07-06T03:54:28;9.03;;;3.37;;
7899;SDS011;3995;50.856;4.404;2022-07-06T03:56:57;9.73;;;3.47;;
7899;SDS011;3995;50.856;4.404;2022-07-06T03:59:24;14.53;;;3.67;;
7899;SDS011;3995;50.856;4.404;2022-07-06T04:01:52;7.53;;;2.97;;
7899;SDS011;3995;50.856;4.404;2022-07-06T04:04:19;7.93;;;3.07;;
7899;SDS011;3995;50.856;4.404;2022-07-06T04:06:46;12.60;;;3.23;;
7899;SDS011;3995;50.856;4.404;2022-07-06T04:09:13;7.87;;;3.30;;
7899;SDS011;3995;50.856;4.404;2022-07-06T04:11:41;7.00;;;3.40;;
7899;SDS011;3995;50.856;4.404;2022-07-06T04:14:10;12.53;;;4.13;;
7899;SDS011;3995;50.856;4.404;2022-07-06T04:16:37;10.63;;;4.07;;
7899;SDS011;3995;50.856;4.404;2022-07-06T04:19:04;7.90;;;3.90;;
7899;SDS011;3995;50.856;4.404;2022-07-06T04:21:31;7.03;;;2.97;;
7899;SDS011;3995;50.856;4.404;2022-07-06T04:23:58;10.30;;;4.00;;
7899;SDS011;3995;50.856;4.404;2022-07-06T04:26:26;11.33;;;3.33;;
7899;SDS011;3995;50.856;4.404;2022-07-06T04:28:53;6.50;;;3.67;;
7899;SDS011;3995;50.856;4.404;2022-07-06T04:31:22;10.80;;;3.43;;
7899;SDS011;3995;50.856;4.404;2022-07-06T04:33:49;5.30;;;3.33;;
7899;SDS011;3995;50.856;4.404;2022-07-06T04:36:16;7.83;;;3.80;;
7899;SDS011;3995;50.856;4.404;2022-07-06T04:38:44;10.63;;;4.23;;
7899;SDS011;3995;50.856;4.404;2022-07-06T04:41:12;8.63;;;3.40;;
7899;SDS011;3995;50.856;4.404;2022-07-06T04:43:40;6.47;;;3.10;;
7899;SDS011;3995;50.856;4.404;2022-07-06T04:46:09;8.50;;;3.60;;
7899;SDS011;3995;50.856;4.404;2022-07-06T04:48:37;8.77;;;3.80;;
7899;SDS011;3995;50.856;4.404;2022-07-06T04:51:05;15.27;;;4.00;;
7899;SDS011;3995;50.856;4.404;2022-07-06T04:53:32;6.33;;;3.60;;
7899;SDS011;3995;50.856;4.404;2022-07-06T04:55:59;5.70;;;3.10;;
7899;SDS011;3995;50.856;4.404;2022-07-06T04:58:26;7.13;;;3.50;;
7899;SDS011;3995;50.856;4.404;2022-07-06T05:00:54;7.13;;;3.80;;
7899;SDS011;3995;50.856;4.404;2022-07-06T05:03:20;11.60;;;3.27;;
7899;SDS011;3995;50.856;4.404;2022-07-06T05:05:49;9.93;;;3.60;;
7899;SDS011;3995;50.856;4.404;2022-07-06T05:08:17;11.47;;;4.20;;
7899;SDS011;3995;50.856;4.404;2022-07-06T05:10:44;5.73;;;3.50;;
7899;SDS011;3995;50.856;4.404;2022-07-06T05:13:12;12.90;;;6.60;;
7899;SDS011;3995;50.856;4.404;2022-07-06T05:15:39;8.37;;;5.23;;
7899;SDS011;3995;50.856;4.404;2022-07-06T05:18:06;8.53;;;3.47;;
7899;SDS011;3995;50.856;4.404;2022-07-06T05:20:33;7.27;;;3.53;;
7899;SDS011;3995;50.856;4.404;2022-07-06T05:23:02;6.07;;;4.10;;
7899;SDS011;3995;50.856;4.404;2022-07-06T05:25:29;8.57;;;4.80;;
7899;SDS011;3995;50.856;4.404;2022-07-06T05:27:57;12.80;;;4.80;;
7899;SDS011;3995;50.856;4.404;2022-07-06T05:30:25;7.47;;;3.80;;
7899;SDS011;3995;50.856;4.404;2022-07-06T05:32:52;8.63;;;4.20;;
7899;SDS011;3995;50.856;4.404;2022-07-06T05:35:20;7.67;;;3.70;;
7899;SDS011;3995;50.856;4.404;2022-07-06T05:37:47;6.03;;;4.10;;
7899;SDS011;3995;50.856;4.404;2022-07-06T05:40:15;8.27;;;4.53;;
7899;SDS011;3995;50.856;4.404;2022-07-06T05:42:43;9.50;;;4.40;;
7899;SDS011;3995;50.856;4.404;2022-07-06T05:45:10;7.03;;;4.33;;
7899;SDS011;3995;50.856;4.404;2022-07-06T05:47:38;12.07;;;4.97;;
7899;SDS011;3995;50.856;4.404;2022-07-06T05:50:22;11.13;;;4.80;;
7899;SDS011;3995;50.856;4.404;2022-07-06T05:52:55;8.87;;;4.40;;
7899;SDS011;3995;50.856;4.404;2022-07-06T05:55:25;10.97;;;4.60;;
7899;SDS011;3995;50.856;4.404;2022-07-06T05:57:52;7.47;;;4.27;;
7899;SDS011;3995;50.856;4.404;2022-07-06T06:00:21;13.23;;;5.13;;
7899;SDS011;3995;50.856;4.404;2022-07-06T06:02:49;13.43;;;5.30;;
7899;SDS011;3995;50.856;4.404;2022-07-06T06:05:16;11.40;;;6.17;;
7899;SDS011;3995;50.856;4.404;2022-07-06T06:07:46;9.93;;;4.83;;
7899;SDS011;3995;50.856;4.404;2022-07-06T06:10:16;7.70;;;5.27;;
7899;SDS011;3995;50.856;4.404;2022-07-06T06:12:46;12.47;;;5.20;;
7899;SDS011;3995;50.856;4.404;2022-07-06T06:15:13;8.63;;;5.10;;
7899;SDS011;3995;50.856;4.404;2022-07-06T06:17:41;13.37;;;5.00;;
7899;SDS011;3995;50.856;4.404;2022-07-06T06:20:09;12.83;;;5.10;;
7899;SDS011;3995;50.856;4.404;2022-07-06T06:22:44;21.60;;;6.37;;
7899;SDS011;3995;50.856;4.404;2022-07-06T06:25:12;16.30;;;5.40;;
7899;SDS011;3995;50.856;4.404;2022-07-06T06:27:39;12.73;;;5.00;;
7899;SDS011;3995;50.856;4.404;2022-07-06T06:30:09;10.37;;;5.30;;
7899;SDS011;3995;50.856;4.404;2022-07-06T06:32:37;9.57;;;4.73;;
7899;SDS011;3995;50.856;4.404;2022-07-06T06:35:05;28.53;;;5.50;;
7899;SDS011;3995;50.856;4.404;2022-07-06T06:37:33;16.33;;;5.77;;
7899;SDS011;3995;50.856;4.404;2022-07-06T06:40:00;6.33;;;4.10;;
7899;SDS011;3995;50.856;4.404;2022-07-06T06:42:27;11.83;;;4.87;;
7899;SDS011;3995;50.856;4.404;2022-07-06T06:44:56;14.20;;;3.50;;
7899;SDS011;3995;50.856;4.404;2022-07-06T06:47:25;11.47;;;3.97;;
7899;SDS011;3995;50.856;4.404;2022-07-06T06:49:52;14.50;;;3.83;;
7899;SDS011;3995;50.856;4.404;2022-07-06T06:52:19;21.00;;;5.30;;
7899;SDS011;3995;50.856;4.404;2022-07-06T06:54:46;14.20;;;4.93;;
7899;SDS011;3995;50.856;4.404;2022-07-06T06:57:13;6.53;;;2.80;;
7899;SDS011;3995;50.856;4.404;2022-07-06T06:59:41;8.70;;;4.03;;
7899;SDS011;3995;50.856;4.404;2022-07-06T07:02:08;14.13;;;3.50;;
7899;SDS011;3995;50.856;4.404;2022-07-06T07:04:41;8.63;;;3.53;;
7899;SDS011;3995;50.856;4.404;2022-07-06T07:07:09;7.10;;;3.40;;
7899;SDS011;3995;50.856;4.404;2022-07-06T07:09:36;14.17;;;3.70;;
7899;SDS011;3995;50.856;4.404;2022-07-06T07:12:03;8.17;;;3.10;;
7899;SDS011;3995;50.856;4.404;2022-07-06T07:14:31;12.93;;;2.70;;
7899;SDS011;3995;50.856;4.404;2022-07-06T07:16:58;6.20;;;3.10;;
7899;SDS011;3995;50.856;4.404;2022-07-06T07:19:26;7.60;;;3.07;;
7899;SDS011;3995;50.856;4.404;2022-07-06T07:21:55;13.90;;;3.00;;
7899;SDS011;3995;50.856;4.404;2022-07-06T07:24:22;8.70;;;2.27;;
7899;SDS011;3995;50.856;4.404;2022-07-06T07:26:49;7.53;;;2.40;;
7899;SDS011;3995;50.856;4.404;2022-07-06T07:29:17;4.13;;;2.60;;
7899;SDS011;3995;50.856;4.404;2022-07-06T07:31:43;9.93;;;2.90;;
7899;SDS011;3995;50.856;4.404;2022-07-06T07:34:11;9.80;;;3.10;;
7899;SDS011;3995;50.856;4.404;2022-07-06T07:36:39;4.87;;;2.60;;
7899;SDS011;3995;50.856;4.404;2022-07-06T07:39:08;5.67;;;2.30;;
7899;SDS011;3995;50.856;4.404;2022-07-06T07:41:35;6.50;;;2.23;;
7899;SDS011;3995;50.856;4.404;2022-07-06T07:44:02;5.83;;;2.20;;
7899;SDS011;3995;50.856;4.404;2022-07-06T07:46:42;4.90;;;2.47;;
7899;SDS011;3995;50.856;4.404;2022-07-06T07:49:10;9.27;;;2.30;;
7899;SDS011;3995;50.856;4.404;2022-07-06T07:51:37;6.60;;;2.30;;
7899;SDS011;3995;50.856;4.404;2022-07-06T07:54:04;7.97;;;2.30;;
7899;SDS011;3995;50.856;4.404;2022-07-06T07:56:33;5.30;;;2.17;;
7899;SDS011;3995;50.856;4.404;2022-07-06T07:59:00;3.57;;;2.13;;
7899;SDS011;3995;50.856;4.404;2022-07-06T08:01:28;6.13;;;2.20;;
7899;SDS011;3995;50.856;4.404;2022-07-06T08:03:55;7.30;;;2.27;;
7899;SDS011;3995;50.856;4.404;2022-07-06T08:06:22;4.87;;;2.00;;
7899;SDS011;3995;50.856;4.404;2022-07-06T08:08:49;7.03;;;1.83;;
7899;SDS011;3995;50.856;4.404;2022-07-06T08:11:16;4.83;;;2.30;;
7899;SDS011;3995;50.856;4.404;2022-07-06T08:13:45;3.80;;;2.10;;
7899;SDS011;3995;50.856;4.404;2022-07-06T08:16:13;7.17;;;2.67;;
7899;SDS011;3995;50.856;4.404;2022-07-06T08:18:40;13.03;;;2.80;;
7899;SDS011;3995;50.856;4.404;2022-07-06T08:21:07;7.33;;;2.60;;
7899;SDS011;3995;50.856;4.404;2022-07-06T08:23:34;6.20;;;3.20;;
7899;SDS011;3995;50.856;4.404;2022-07-06T08:26:02;5.23;;;2.97;;
7899;SDS011;3995;50.856;4.404;2022-07-06T08:28:29;8.33;;;3.53;;
7899;SDS011;3995;50.856;4.404;2022-07-06T08:30:58;10.47;;;3.27;;
7899;SDS011;3995;50.856;4.404;2022-07-06T08:33:26;5.80;;;2.97;;
7899;SDS011;3995;50.856;4.404;2022-07-06T08:35:53;8.03;;;3.27;;
7899;SDS011;3995;50.856;4.404;2022-07-06T08:38:20;8.27;;;4.10;;
7899;SDS011;3995;50.856;4.404;2022-07-06T08:40:48;4.67;;;3.47;;
7899;SDS011;3995;50.856;4.404;2022-07-06T08:43:16;7.73;;;3.60;;
7899;SDS011;3995;50.856;4.404;2022-07-06T08:45:44;6.10;;;3.70;;
7899;SDS011;3995;50.856;4.404;2022-07-06T08:48:14;5.27;;;3.20;;
7899;SDS011;3995;50.856;4.404;2022-07-06T08:50:42;6.97;;;4.10;;
7899;SDS011;3995;50.856;4.404;2022-07-06T08:53:10;9.37;;;3.33;;
7899;SDS011;3995;50.856;4.404;2022-07-06T08:55:37;5.17;;;2.73;;
7899;SDS011;3995;50.856;4.404;2022-07-06T08:58:05;6.27;;;3.57;;
7899;SDS011;3995;50.856;4.404;2022-07-06T09:00:34;5.70;;;3.10;;
7899;SDS011;3995;50.856;4.404;2022-07-06T09:03:02;7.33;;;3.70;;
7899;SDS011;3995;50.856;4.404;2022-07-06T09:05:33;6.30;;;3.43;;
7899;SDS011;3995;50.856;4.404;2022-07-06T09:08:02;8.77;;;3.70;;
7899;SDS011;3995;50.856;4.404;2022-07-06T09:10:30;8.33;;;3.23;;
7899;SDS011;3995;50.856;4.404;2022-07-06T09:13:04;6.10;;;3.00;;
7899;SDS011;3995;50.856;4.404;2022-07-06T09:15:32;5.60;;;2.77;;
7899;SDS011;3995;50.856;4.404;2022-07-06T09:18:00;5.40;;;3.30;;
7899;SDS011;3995;50.856;4.404;2022-07-06T09:20:27;6.90;;;3.13;;
7899;SDS011;3995;50.856;4.404;2022-07-06T09:22:58;9.47;;;3.20;;
7899;SDS011;3995;50.856;4.404;2022-07-06T09:25:26;5.87;;;3.00;;
7899;SDS011;3995;50.856;4.404;2022-07-06T09:27:55;7.27;;;2.97;;
7899;SDS011;3995;50.856;4.404;2022-07-06T09:30:24;7.43;;;3.40;;
7899;SDS011;3995;50.856;4.404;2022-07-06T09:32:53;7.77;;;2.67;;
7899;SDS011;3995;50.856;4.404;2022-07-06T09:35:21;4.70;;;2.40;;
7899;SDS011;3995;50.856;4.404;2022-07-06T09:38:01;6.60;;;2.93;;
7899;SDS011;3995;50.856;4.404;2022-07-06T09:40:31;5.83;;;2.97;;
7899;SDS011;3995;50.856;4.404;2022-07-06T09:43:09;5.83;;;3.10;;
7899;SDS011;3995;50.856;4.404;2022-07-06T09:45:38;4.57;;;3.40;;
7899;SDS011;3995;50.856;4.404;2022-07-06T09:48:08;5.97;;;2.70;;
7899;SDS011;3995;50.856;4.404;2022-07-06T09:50:39;11.23;;;3.53;;
7899;SDS011;3995;50.856;4.404;2022-07-06T09:53:12;6.87;;;2.87;;
7899;SDS011;3995;50.856;4.404;2022-07-06T09:55:42;5.87;;;3.07;;
7899;SDS011;3995;50.856;4.404;2022-07-06T09:58:10;12.83;;;2.67;;
7899;SDS011;3995;50.856;4.404;2022-07-06T10:00:37;4.67;;;3.10;;
7899;SDS011;3995;50.856;4.404;2022-07-06T10:03:04;5.73;;;2.33;;
7899;SDS011;3995;50.856;4.404;2022-07-06T10:05:32;11.27;;;2.90;;
7899;SDS011;3995;50.856;4.404;2022-07-06T10:08:01;5.57;;;3.13;;
7899;SDS011;3995;50.856;4.404;2022-07-06T10:10:32;8.27;;;3.20;;
7899;SDS011;3995;50.856;4.404;2022-07-06T10:12:59;4.73;;;2.53;;
7899;SDS011;3995;50.856;4.404;2022-07-06T10:15:27;5.37;;;2.70;;
7899;SDS011;3995;50.856;4.404;2022-07-06T10:17:57;7.43;;;2.93;;
7899;SDS011;3995;50.856;4.404;2022-07-06T10:20:27;7.37;;;2.60;;
7899;SDS011;3995;50.856;4.404;2022-07-06T10:22:57;4.60;;;2.63;;
7899;SDS011;3995;50.856;4.404;2022-07-06T10:25:27;4.13;;;2.77;;
7899;SDS011;3995;50.856;4.404;2022-07-06T10:27:56;4.63;;;2.50;;
7899;SDS011;3995;50.856;4.404;2022-07-06T10:30:24;6.23;;;2.40;;
7899;SDS011;3995;50.856;4.404;2022-07-06T10:32:52;7.03;;;2.77;;
7899;SDS011;3995;50.856;4.404;2022-07-06T10:35:22;4.30;;;2.70;;
7899;SDS011;3995;50.856;4.404;2022-07-06T10:38:02;6.83;;;2.63;;
7899;SDS011;3995;50.856;4.404;2022-07-06T10:40:31;5.70;;;2.33;;
7899;SDS011;3995;50.856;4.404;2022-07-06T10:43:18;7.40;;;2.17;;
7899;SDS011;3995;50.856;4.404;2022-07-06T10:45:52;8.83;;;2.83;;
7899;SDS011;3995;50.856;4.404;2022-07-06T10:48:20;10.50;;;3.00;;
7899;SDS011;3995;50.856;4.404;2022-07-06T10:50:48;6.97;;;2.10;;
7899;SDS011;3995;50.856;4.404;2022-07-06T10:53:18;5.07;;;2.07;;
7899;SDS011;3995;50.856;4.404;2022-07-06T10:55:49;8.83;;;2.33;;
7899;SDS011;3995;50.856;4.404;2022-07-06T10:58:41;7.33;;;2.10;;
7899;SDS011;3995;50.856;4.404;2022-07-06T11:01:16;6.10;;;2.40;;
7899;SDS011;3995;50.856;4.404;2022-07-06T11:03:44;9.37;;;3.27;;
7899;SDS011;3995;50.856;4.404;2022-07-06T11:06:13;8.10;;;2.43;;
7899;SDS011;3995;50.856;4.404;2022-07-06T11:08:42;4.80;;;2.40;;
7899;SDS011;3995;50.856;4.404;2022-07-06T11:11:10;4.87;;;2.30;;
7899;SDS011;3995;50.856;4.404;2022-07-06T11:13:46;9.00;;;2.60;;
7899;SDS011;3995;50.856;4.404;2022-07-06T11:16:14;5.43;;;2.10;;
7899;SDS011;3995;50.856;4.404;2022-07-06T11:18:45;6.10;;;2.70;;
7899;SDS011;3995;50.856;4.404;2022-07-06T11:21:17;7.27;;;2.50;;
7899;SDS011;3995;50.856;4.404;2022-07-06T11:23:46;5.97;;;2.10;;
7899;SDS011;3995;50.856;4.404;2022-07-06T11:26:13;3.83;;;2.47;;
7899;SDS011;3995;50.856;4.404;2022-07-06T11:28:41;6.40;;;2.13;;
7899;SDS011;3995;50.856;4.404;2022-07-06T11:31:10;9.27;;;3.17;;
7899;SDS011;3995;50.856;4.404;2022-07-06T11:33:37;6.93;;;2.77;;
7899;SDS011;3995;50.856;4.404;2022-07-06T11:36:14;9.83;;;2.57;;
7899;SDS011;3995;50.856;4.404;2022-07-06T11:38:43;6.87;;;2.93;;
7899;SDS011;3995;50.856;4.404;2022-07-06T11:41:11;4.83;;;2.33;;
7899;SDS011;3995;50.856;4.404;2022-07-06T11:43:39;4.73;;;2.43;;
7899;SDS011;3995;50.856;4.404;2022-07-06T11:46:33;3.17;;;2.07;;
7899;SDS011;3995;50.856;4.404;2022-07-06T11:49:02;10.47;;;2.47;;
7899;SDS011;3995;50.856;4.404;2022-07-06T11:51:31;6.73;;;2.30;;
7899;SDS011;3995;50.856;4.404;2022-07-06T11:54:01;5.50;;;2.30;;
7899;SDS011;3995;50.856;4.404;2022-07-06T11:56:37;12.63;;;2.80;;
7899;SDS011;3995;50.856;4.404;2022-07-06T11:59:11;7.53;;;2.90;;
7899;SDS011;3995;50.856;4.404;2022-07-06T12:01:40;6.17;;;2.27;;
7899;SDS011;3995;50.856;4.404;2022-07-06T12:04:09;5.07;;;2.67;;
7899;SDS011;3995;50.856;4.404;2022-07-06T12:06:36;5.30;;;1.80;;
7899;SDS011;3995;50.856;4.404;2022-07-06T12:09:03;11.33;;;2.30;;
7899;SDS011;3995;50.856;4.404;2022-07-06T12:11:32;10.13;;;2.30;;
7899;SDS011;3995;50.856;4.404;2022-07-06T12:14:01;5.23;;;2.17;;
7899;SDS011;3995;50.856;4.404;2022-07-06T12:16:30;4.77;;;1.77;;
7899;SDS011;3995;50.856;4.404;2022-07-06T12:19:01;5.80;;;2.20;;
7899;SDS011;3995;50.856;4.404;2022-07-06T12:21:30;6.63;;;2.20;;
7899;SDS011;3995;50.856;4.404;2022-07-06T12:23:58;6.27;;;2.10;;
7899;SDS011;3995;50.856;4.404;2022-07-06T12:26:26;4.37;;;2.00;;
7899;SDS011;3995;50.856;4.404;2022-07-06T12:29:01;4.53;;;2.30;;
7899;SDS011;3995;50.856;4.404;2022-07-06T12:31:33;5.50;;;1.97;;
7899;SDS011;3995;50.856;4.404;2022-07-06T12:34:04;8.70;;;1.80;;
7899;SDS011;3995;50.856;4.404;2022-07-06T12:36:32;4.23;;;2.00;;
7899;SDS011;3995;50.856;4.404;2022-07-06T12:39:10;4.77;;;2.23;;
7899;SDS011;3995;50.856;4.404;2022-07-06T12:41:42;4.87;;;1.80;;
7899;SDS011;3995;50.856;4.404;2022-07-06T12:44:12;6.60;;;2.00;;
7899;SDS011;3995;50.856;4.404;2022-07-06T12:46:40;4.83;;;1.70;;
7899;SDS011;3995;50.856;4.404;2022-07-06T12:49:12;6.00;;;1.70;;
7899;SDS011;3995;50.856;4.404;2022-07-06T12:51:51;5.07;;;1.90;;
7899;SDS011;3995;50.856;4.404;2022-07-06T12:54:22;2.33;;;1.60;;
7899;SDS011;3995;50.856;4.404;2022-07-06T12:57:05;6.13;;;2.27;;
7899;SDS011;3995;50.856;4.404;2022-07-06T12:59:38;9.53;;;1.83;;
7899;SDS011;3995;50.856;4.404;2022-07-06T13:02:07;5.23;;;1.90;;
7899;SDS011;3995;50.856;4.404;2022-07-06T13:04:37;3.90;;;2.10;;
7899;SDS011;3995;50.856;4.404;2022-07-06T13:07:04;7.97;;;2.40;;
7899;SDS011;3995;50.856;4.404;2022-07-06T13:09:31;6.27;;;2.47;;
7899;SDS011;3995;50.856;4.404;2022-07-06T13:11:59;6.40;;;2.00;;
7899;SDS011;3995;50.856;4.404;2022-07-06T13:14:26;4.83;;;2.00;;
7899;SDS011;3995;50.856;4.404;2022-07-06T13:16:53;5.13;;;2.30;;
7899;SDS011;3995;50.856;4.404;2022-07-06T13:19:20;5.57;;;2.33;;
7899;SDS011;3995;50.856;4.404;2022-07-06T13:21:48;4.50;;;2.00;;
7899;SDS011;3995;50.856;4.404;2022-07-06T13:24:16;3.50;;;2.17;;
7899;SDS011;3995;50.856;4.404;2022-07-06T13:26:43;5.67;;;2.50;;
7899;SDS011;3995;50.856;4.404;2022-07-06T13:29:11;6.30;;;2.93;;
7899;SDS011;3995;50.856;4.404;2022-07-06T13:31:39;6.30;;;2.47;;
7899;SDS011;3995;50.856;4.404;2022-07-06T13:34:07;5.70;;;2.03;;
7899;SDS011;3995;50.856;4.404;2022-07-06T13:36:35;8.00;;;1.97;;
7899;SDS011;3995;50.856;4.404;2022-07-06T13:39:04;7.67;;;2.43;;
7899;SDS011;3995;50.856;4.404;2022-07-06T13:41:33;4.90;;;2.20;;
7899;SDS011;3995;50.856;4.404;2022-07-06T13:44:00;5.93;;;2.83;;
7899;SDS011;3995;50.856;4.404;2022-07-06T13:46:28;8.10;;;2.63;;
7899;SDS011;3995;50.856;4.404;2022-07-06T13:48:56;4.03;;;2.50;;
7899;SDS011;3995;50.856;4.404;2022-07-06T13:51:24;15.37;;;1.97;;
7899;SDS011;3995;50.856;4.404;2022-07-06T13:53:53;6.70;;;2.10;;
7899;SDS011;3995;50.856;4.404;2022-07-06T13:56:22;8.30;;;1.90;;
7899;SDS011;3995;50.856;4.404;2022-07-06T13:58:50;3.70;;;2.17;;
7899;SDS011;3995;50.856;4.404;2022-07-06T14:01:17;8.53;;;2.30;;
7899;SDS011;3995;50.856;4.404;2022-07-06T14:03:45;8.93;;;2.37;;
7899;SDS011;3995;50.856;4.404;2022-07-06T14:06:12;3.77;;;1.90;;
7899;SDS011;3995;50.856;4.404;2022-07-06T14:08:40;5.03;;;1.87;;
7899;SDS011;3995;50.856;4.404;2022-07-06T14:11:07;4.97;;;2.33;;
7899;SDS011;3995;50.856;4.404;2022-07-06T14:13:37;6.63;;;2.20;;
7899;SDS011;3995;50.856;4.404;2022-07-06T14:16:05;6.37;;;2.40;;
7899;SDS011;3995;50.856;4.404;2022-07-06T14:18:33;5.63;;;1.63;;
7899;SDS011;3995;50.856;4.404;2022-07-06T14:20:59;8.93;;;2.20;;
7899;SDS011;3995;50.856;4.404;2022-07-06T14:23:28;10.00;;;2.33;;
7899;SDS011;3995;50.856;4.404;2022-07-06T14:25:56;3.20;;;1.80;;
7899;SDS011;3995;50.856;4.404;2022-07-06T14:28:23;9.43;;;1.97;;
7899;SDS011;3995;50.856;4.404;2022-07-06T14:30:52;6.83;;;2.60;;
7899;SDS011;3995;50.856;4.404;2022-07-06T14:33:20;3.40;;;2.17;;
7899;SDS011;3995;50.856;4.404;2022-07-06T14:35:48;5.13;;;2.57;;
7899;SDS011;3995;50.856;4.404;2022-07-06T14:38:17;6.43;;;2.00;;
7899;SDS011;3995;50.856;4.404;2022-07-06T14:40:45;6.47;;;1.80;;
7899;SDS011;3995;50.856;4.404;2022-07-06T14:43:14;5.00;;;1.80;;
7899;SDS011;3995;50.856;4.404;2022-07-06T14:45:42;7.17;;;2.27;;
7899;SDS011;3995;50.856;4.404;2022-07-06T14:48:11;3.57;;;1.97;;
7899;SDS011;3995;50.856;4.404;2022-07-06T14:50:39;2.73;;;1.90;;
7899;SDS011;3995;50.856;4.404;2022-07-06T14:53:06;6.30;;;2.17;;
7899;SDS011;3995;50.856;4.404;2022-07-06T14:55:34;2.77;;;1.60;;
7899;SDS011;3995;50.856;4.404;2022-07-06T14:58:01;9.40;;;2.23;;
7899;SDS011;3995;50.856;4.404;2022-07-06T15:00:29;6.47;;;2.20;;
7899;SDS011;3995;50.856;4.404;2022-07-06T15:02:56;6.73;;;2.07;;
7899;SDS011;3995;50.856;4.404;2022-07-06T15:05:25;3.83;;;1.70;;
7899;SDS011;3995;50.856;4.404;2022-07-06T15:07:52;5.17;;;1.97;;
7899;SDS011;3995;50.856;4.404;2022-07-06T15:10:20;4.80;;;1.80;;
7899;SDS011;3995;50.856;4.404;2022-07-06T15:12:47;4.43;;;1.60;;
7899;SDS011;3995;50.856;4.404;2022-07-06T15:15:14;5.03;;;2.30;;
7899;SDS011;3995;50.856;4.404;2022-07-06T15:17:47;4.63;;;1.70;;
7899;SDS011;3995;50.856;4.404;2022-07-06T15:20:19;3.73;;;2.13;;